createdAt,value
2022-09-22T00:03:09.414Z,8.20
2022-09-22T00:08:13.511Z,6.05
2022-09-22T00:13:18.257Z,6.13
2022-09-22T00:23:26.631Z,7.45
2022-09-22T00:28:32.025Z,6.65
2022-09-22T00:33:35.569Z,6.35
2022-09-22T00:38:42.447Z,6.35
2022-09-22T00:43:49.332Z,6.63
2022-09-22T00:48:57.342Z,6.18
2022-09-22T00:54:03.231Z,8.60
2022-09-22T00:59:14.782Z,5.95
2022-09-22T01:04:18.434Z,7.15
2022-09-22T01:09:22.956Z,5.60
2022-09-22T01:14:36.766Z,5.88
2022-09-22T01:20:19.776Z,6.13
2022-09-22T01:25:50.881Z,6.15
2022-09-22T01:31:01.157Z,7.50
2022-09-22T01:36:16.105Z,6.55
2022-09-22T01:46:32.504Z,7.68
2022-09-22T01:51:41.521Z,7.75
2022-09-22T01:56:52.480Z,8.23
2022-09-22T02:02:02.770Z,9.90
2022-09-22T02:07:10.798Z,7.75
2022-09-22T02:12:17.049Z,8.20
2022-09-22T02:17:23.920Z,7.55
2022-09-22T02:22:27.303Z,8.70
2022-09-22T02:27:37.602Z,9.38
2022-09-22T02:32:47.521Z,8.57
2022-09-22T02:37:55.639Z,8.88
2022-09-22T02:43:07.720Z,10.43
2022-09-22T02:48:20.502Z,10.65
2022-09-22T02:53:24.141Z,10.60
2022-09-22T02:58:28.576Z,10.18
2022-09-22T03:03:33.375Z,10.50
2022-09-22T03:08:37.655Z,12.43
2022-09-22T03:13:41.101Z,9.80
2022-09-22T03:18:46.634Z,9.68
2022-09-22T03:23:50.031Z,10.35
2022-09-22T03:28:54.292Z,11.75
2022-09-22T03:33:59.091Z,12.65
2022-09-22T03:44:06.294Z,10.35
2022-09-22T03:49:12.044Z,13.07
2022-09-22T03:54:15.355Z,18.40
2022-09-22T03:59:19.858Z,14.68
2022-09-22T04:04:24.819Z,12.65
2022-09-22T04:09:28.904Z,12.50
2022-09-22T04:14:32.202Z,11.05
2022-09-22T04:19:37.791Z,12.27
2022-09-22T04:24:41.643Z,13.60
2022-09-22T04:29:45.707Z,21.17
2022-09-22T04:34:51.174Z,10.43
2022-09-22T04:39:56.378Z,10.75
2022-09-22T04:45:02.212Z,11.57
2022-09-22T04:50:09.579Z,12.25
2022-09-22T04:55:13.091Z,9.80
2022-09-22T05:00:18.601Z,9.65
2022-09-22T05:05:24.871Z,10.38
2022-09-22T05:10:32.263Z,8.70
2022-09-22T05:15:36.341Z,12.77
2022-09-22T05:20:41.920Z,13.05
2022-09-22T05:25:46.178Z,14.52
2022-09-22T05:30:52.170Z,9.90
2022-09-22T05:35:57.668Z,8.63
2022-09-22T05:41:02.298Z,8.15
2022-09-22T05:51:12.027Z,6.05
2022-09-22T05:56:16.105Z,9.13
2022-09-22T06:01:20.575Z,9.05
2022-09-22T06:06:26.133Z,7.93
2022-09-22T06:11:29.443Z,8.80
2022-09-22T06:16:34.066Z,9.15
2022-09-22T06:21:39.915Z,8.90
2022-09-22T06:26:44.501Z,9.02
2022-09-22T06:31:49.829Z,7.68
2022-09-22T06:36:57.052Z,8.75
2022-09-22T06:42:01.965Z,9.70
2022-09-22T06:47:07.308Z,8.23
2022-09-22T06:52:15.274Z,7.10
2022-09-22T06:57:19.951Z,10.27
2022-09-22T07:07:33.859Z,9.77
2022-09-22T07:12:37.215Z,7.57
2022-09-22T07:17:41.904Z,7.10
2022-09-22T07:22:46.643Z,7.53
2022-09-22T07:32:53.823Z,7.28
2022-09-22T07:38:00.300Z,9.63
2022-09-22T07:43:03.731Z,9.45
2022-09-22T07:48:25.373Z,7.22
2022-09-22T07:53:30.194Z,8.30
2022-09-22T07:58:34.543Z,6.55
2022-09-22T08:03:38.181Z,7.18
2022-09-22T08:08:46.374Z,7.37
2022-09-22T08:13:53.847Z,6.60
2022-09-22T08:18:58.972Z,7.00
2022-09-22T08:24:05.080Z,6.53
2022-09-22T08:29:10.068Z,7.78
2022-09-22T08:34:16.774Z,6.88
2022-09-22T08:39:23.069Z,9.80
2022-09-22T08:44:29.958Z,9.43
2022-09-22T08:49:59.503Z,12.50
2022-09-22T08:55:04.676Z,10.32
2022-09-22T09:00:15.405Z,11.23
2022-09-22T09:05:49.259Z,10.70
2022-09-22T09:10:56.690Z,8.18
2022-09-22T09:16:17.253Z,7.70
2022-09-22T09:21:24.532Z,6.63
2022-09-22T09:26:31.498Z,8.77
2022-09-22T09:31:40.123Z,9.40
2022-09-22T09:36:46.845Z,8.43
2022-09-22T09:41:53.568Z,8.77
2022-09-22T09:47:05.144Z,6.45
2022-09-22T09:52:14.086Z,7.15
2022-09-22T09:57:20.782Z,6.63
2022-09-22T10:02:28.774Z,9.13
2022-09-22T10:07:41.872Z,7.60
2022-09-22T10:12:46.697Z,6.43
2022-09-22T10:17:50.812Z,6.80
2022-09-22T10:22:54.998Z,6.38
2022-09-22T10:28:07.807Z,5.82
2022-09-22T10:33:17.502Z,6.38
2022-09-22T10:38:23.735Z,8.02
2022-09-22T10:43:38.449Z,7.78
2022-09-22T10:54:09.957Z,6.35
2022-09-22T10:59:45.838Z,6.45
2022-09-22T11:04:58.541Z,6.85
2022-09-22T11:10:31.191Z,8.40
2022-09-22T11:15:55.982Z,5.30
2022-09-22T11:21:07.023Z,8.27
2022-09-22T11:26:30.989Z,6.20
2022-09-22T11:31:49.000Z,8.07
2022-09-22T11:37:01.080Z,7.28
2022-09-22T11:42:17.859Z,6.70
2022-09-22T11:47:43.438Z,8.32
2022-09-22T11:53:02.415Z,5.75
2022-09-22T11:58:13.382Z,7.22
2022-09-22T12:03:25.384Z,5.43
2022-09-22T12:08:35.806Z,7.43
2022-09-22T12:13:45.465Z,6.93
2022-09-22T12:18:57.822Z,8.10
2022-09-22T12:24:03.995Z,7.25
2022-09-22T12:29:24.002Z,5.38
2022-09-22T12:34:34.060Z,6.05
2022-09-22T12:39:45.483Z,6.20
2022-09-22T12:44:55.083Z,5.75
2022-09-22T12:50:02.583Z,7.43
2022-09-22T12:55:20.458Z,9.05
2022-09-22T13:00:32.926Z,6.30
2022-09-22T13:05:47.029Z,6.10
2022-09-22T13:10:59.687Z,6.07
2022-09-22T13:16:06.224Z,8.57
2022-09-22T13:21:26.067Z,10.02
2022-09-22T13:26:33.542Z,11.98
2022-09-22T13:31:43.923Z,14.80
2022-09-22T13:36:50.332Z,7.22
2022-09-22T13:41:57.708Z,19.15
2022-09-22T13:47:07.974Z,31.65
2022-09-22T13:52:18.319Z,10.18
2022-09-22T13:57:26.338Z,10.10
2022-09-22T14:02:32.493Z,9.95
2022-09-22T14:07:55.227Z,10.85
2022-09-22T14:13:03.287Z,23.55
2022-09-22T14:18:16.956Z,20.33
2022-09-22T14:23:29.655Z,12.87
2022-09-22T14:28:37.613Z,14.85
2022-09-22T14:33:45.718Z,16.65
2022-09-22T14:39:08.527Z,10.43
2022-09-22T14:44:52.578Z,14.17
2022-09-22T14:50:13.411Z,11.15
2022-09-22T14:55:31.438Z,9.30
2022-09-22T15:00:54.697Z,9.88
2022-09-22T15:06:09.361Z,13.02
2022-09-22T15:11:14.072Z,10.88
2022-09-22T15:16:39.056Z,12.82
2022-09-22T15:27:00.311Z,12.98
2022-09-22T15:32:08.281Z,12.40
2022-09-22T15:37:16.441Z,11.55
2022-09-22T15:42:22.669Z,11.57
2022-09-22T15:47:27.832Z,14.20
2022-09-22T15:52:31.973Z,14.00
2022-09-22T15:57:38.562Z,16.33
2022-09-22T16:02:43.055Z,13.55
2022-09-22T16:07:52.083Z,13.80
2022-09-22T16:12:59.478Z,15.45
2022-09-22T16:18:03.961Z,14.15
2022-09-22T16:23:08.221Z,13.93
2022-09-22T16:28:14.566Z,14.27
2022-09-22T16:33:18.771Z,16.35
2022-09-22T16:38:23.228Z,21.02
2022-09-22T16:43:29.262Z,15.10
2022-09-22T16:48:39.773Z,14.52
2022-09-22T16:53:53.779Z,17.10
2022-09-22T16:59:03.901Z,20.80
2022-09-22T17:04:09.430Z,18.38
2022-09-22T17:09:15.411Z,21.75
2022-09-22T17:14:23.161Z,17.42
2022-09-22T17:19:29.276Z,17.65
2022-09-22T17:24:33.217Z,20.15
2022-09-22T17:29:39.717Z,16.93
2022-09-22T17:34:44.046Z,13.80
2022-09-22T17:39:49.050Z,16.58
2022-09-22T17:44:54.634Z,16.98
2022-09-22T17:50:16.647Z,18.75
2022-09-22T17:55:26.252Z,17.65
2022-09-22T18:00:34.913Z,16.67
2022-09-22T18:05:43.185Z,16.20
2022-09-22T18:10:47.618Z,18.33
2022-09-22T18:15:55.666Z,18.40
2022-09-22T18:21:00.592Z,18.48
2022-09-22T18:26:05.629Z,16.27
2022-09-22T18:31:12.316Z,15.57
2022-09-22T18:36:17.000Z,16.70
2022-09-22T18:41:21.587Z,15.65
2022-09-22T18:46:30.860Z,16.42
2022-09-22T18:51:35.514Z,23.17
2022-09-22T18:56:44.114Z,15.52
2022-09-22T19:01:50.935Z,14.25
2022-09-22T19:07:14.701Z,14.70
2022-09-22T19:12:19.306Z,14.68
2022-09-22T19:17:26.493Z,18.50
2022-09-22T19:22:31.463Z,14.52
2022-09-22T19:27:36.477Z,13.85
2022-09-22T19:32:41.982Z,15.82
2022-09-22T19:37:46.300Z,14.70
2022-09-22T19:42:50.148Z,11.50
2022-09-22T19:47:57.943Z,18.70
2022-09-22T19:53:01.648Z,15.07
2022-09-22T19:58:05.929Z,14.25
2022-09-22T20:03:12.362Z,12.52
2022-09-22T20:08:17.596Z,13.82
2022-09-22T20:13:38.131Z,14.65
2022-09-22T20:18:44.616Z,12.45
2022-09-22T20:23:48.009Z,16.38
2022-09-22T20:28:52.971Z,13.82
2022-09-22T20:33:57.949Z,12.13
2022-09-22T20:39:02.150Z,14.88
2022-09-22T20:44:05.473Z,18.58
2022-09-22T20:49:14.092Z,13.70
2022-09-22T20:54:17.459Z,12.88
2022-09-22T20:59:21.513Z,13.20
2022-09-22T21:04:26.159Z,13.40
2022-09-22T21:09:47.666Z,12.00
2022-09-22T21:14:51.266Z,13.80
2022-09-22T21:19:59.052Z,13.52
2022-09-22T21:25:02.440Z,15.55
2022-09-22T21:30:08.972Z,14.77
2022-09-22T21:35:16.754Z,12.48
2022-09-22T21:40:21.242Z,13.65
2022-09-22T21:45:25.453Z,14.45
2022-09-22T21:50:30.868Z,12.50
2022-09-22T21:55:34.951Z,16.05
2022-09-22T22:00:51.811Z,13.30
2022-09-22T22:06:09.293Z,14.85
2022-09-22T22:11:14.746Z,16.52
2022-09-22T22:16:18.050Z,19.02
2022-09-22T22:21:24.640Z,17.75
2022-09-22T22:26:28.001Z,19.60
2022-09-22T22:31:31.347Z,41.78
2022-09-22T22:36:36.470Z,15.50
2022-09-22T22:41:40.150Z,16.83
2022-09-22T22:46:43.793Z,15.50
2022-09-22T22:51:49.433Z,15.95
2022-09-22T22:56:52.755Z,18.05
2022-09-22T23:01:56.236Z,17.45
2022-09-22T23:07:01.144Z,16.15
2022-09-22T23:12:04.468Z,16.33
2022-09-22T23:17:07.751Z,15.43
2022-09-22T23:22:12.490Z,16.92
2022-09-22T23:32:19.439Z,15.52
2022-09-22T23:37:26.018Z,20.53
2022-09-22T23:42:29.374Z,24.33
2022-09-22T23:47:33.021Z,26.95
2022-09-22T23:52:38.227Z,28.75
2022-09-22T23:57:41.573Z,25.27
